Time;durP1;ratioP1;P1;durP2;ratioP2;P2;SDS_P1;SDS_P2;PMS_P1;PMS_P2;Temp;Humidity;BMP_temperature;BMP_pressure;BME280_temperature;BME280_humidity;BME280_pressure;Samples;Min_cycle;Max_cycle;Signal;HPM_P1;HPM_P2
2022/07/04 00:01:27;;;;;;;2.27;1.10;;;26.70;57.00;;;;;;6275825;22;20453;-71
2022/07/04 00:03:55;;;;;;;1.70;1.10;;;26.70;57.00;;;;;;6275954;22;20381;-71
2022/07/04 00:06:21;;;;;;;1.97;1.07;;;26.70;57.00;;;;;;6224731;22;20514;-71
2022/07/04 00:08:52;;;;;;;2.10;1.20;;;26.70;57.10;;;;;;6250205;22;20401;-71
2022/07/04 00:11:20;;;;;;;1.83;1.37;;;26.70;57.10;;;;;;6224757;22;20374;-71
2022/07/04 00:13:46;;;;;;;1.80;1.30;;;26.70;57.20;;;;;;6250079;22;20817;-71
2022/07/04 00:16:14;;;;;;;5.43;1.10;;;26.60;57.20;;;;;;6249551;22;20390;-71
2022/07/04 00:18:40;;;;;;;2.53;1.20;;;26.60;57.20;;;;;;6250015;22;20465;-71
2022/07/04 00:21:06;;;;;;;1.63;1.10;;;26.60;57.20;;;;;;6276719;22;20421;-71
2022/07/04 00:23:35;;;;;;;2.40;1.83;;;26.60;57.20;;;;;;6250104;22;20436;-71
2022/07/04 00:26:05;;;;;;;2.33;1.20;;;26.50;57.20;;;;;;6276684;22;20421;-71
2022/07/04 00:28:31;;;;;;;3.03;1.07;;;26.50;57.20;;;;;;6249787;22;20409;-71
2022/07/04 00:31:00;;;;;;;2.20;1.30;;;26.50;57.20;;;;;;6277168;22;20366;-71
2022/07/04 00:33:26;;;;;;;3.70;1.20;;;26.40;57.20;;;;;;6224779;22;20154;-71
2022/07/04 00:35:55;;;;;;;4.13;1.70;;;26.40;57.30;;;;;;6276560;22;20393;-71
2022/07/04 00:38:21;;;;;;;2.93;1.80;;;26.40;57.30;;;;;;6249765;22;20922;-71
2022/07/04 00:40:47;;;;;;;3.67;1.30;;;26.40;57.40;;;;;;6224672;22;20733;-71
2022/07/04 00:43:20;;;;;;;1.53;1.10;;;26.40;57.40;;;;;;6224487;22;20381;-71
2022/07/04 00:45:48;;;;;;;2.30;1.30;;;26.30;57.40;;;;;;6276823;22;20902;-71
2022/07/04 00:48:15;;;;;;;2.43;1.50;;;26.30;57.40;;;;;;6276715;22;20407;-71
2022/07/04 00:50:43;;;;;;;2.40;1.20;;;26.30;57.40;;;;;;6276718;22;20409;-71
2022/07/04 00:53:10;;;;;;;1.50;1.17;;;26.30;57.40;;;;;;6224565;22;20461;-71
2022/07/04 00:55:39;;;;;;;2.27;1.20;;;26.30;57.50;;;;;;6224468;22;20481;-71
2022/07/04 00:58:08;;;;;;;4.50;1.33;;;26.20;57.50;;;;;;6249715;22;20477;-71
2022/07/04 01:00:34;;;;;;;2.03;1.20;;;26.20;57.50;;;;;;6249909;22;20368;-71
2022/07/04 01:03:00;;;;;;;1.70;1.30;;;26.20;57.50;;;;;;6249526;22;20401;-71
2022/07/04 01:05:26;;;;;;;2.37;1.43;;;26.20;57.50;;;;;;6276716;22;20413;-71
2022/07/04 01:07:56;;;;;;;1.53;1.00;;;26.20;57.60;;;;;;6276675;22;20695;-71
2022/07/04 01:10:22;;;;;;;0.90;0.80;;;26.10;57.60;;;;;;6249840;22;20358;-71
2022/07/04 01:12:49;;;;;;;3.53;1.47;;;26.10;57.60;;;;;;6275203;22;20427;-71
2022/07/04 01:15:20;;;;;;;1.90;1.20;;;26.10;57.60;;;;;;6224691;22;20903;-71
2022/07/04 01:17:46;;;;;;;2.50;1.30;;;26.10;57.60;;;;;;6249151;22;20412;-71
2022/07/04 01:20:18;;;;;;;2.13;1.40;;;26.00;57.60;;;;;;6249610;22;20421;-71
2022/07/04 01:22:46;;;;;;;1.60;1.20;;;26.00;57.60;;;;;;6275045;22;20478;-71
2022/07/04 01:25:14;;;;;;;2.40;1.33;;;26.00;57.70;;;;;;6274927;22;20951;-71
2022/07/04 01:27:40;;;;;;;1.17;1.07;;;26.00;57.70;;;;;;6224312;22;20832;-71
2022/07/04 01:30:07;;;;;;;1.43;1.20;;;26.00;57.70;;;;;;6223928;22;20405;-71
2022/07/04 01:32:33;;;;;;;1.30;1.20;;;25.90;57.70;;;;;;6276440;22;20898;-71
2022/07/04 01:35:02;;;;;;;1.53;1.17;;;25.90;57.70;;;;;;6276584;22;20361;-71
2022/07/04 01:37:28;;;;;;;2.60;1.20;;;25.90;57.80;;;;;;6224374;22;20377;-71
2022/07/04 01:39:53;;;;;;;1.50;1.40;;;25.90;57.80;;;;;;6276447;22;20392;-71
2022/07/04 01:42:25;;;;;;;2.20;1.40;;;25.90;57.80;;;;;;6275080;22;20376;-71
2022/07/04 01:44:56;;;;;;;1.17;1.07;;;25.80;57.70;;;;;;6224904;22;20405;-71
2022/07/04 01:47:24;;;;;;;2.77;1.47;;;25.80;57.80;;;;;;6249716;22;20369;-71
2022/07/04 01:49:52;;;;;;;2.60;1.10;;;25.80;57.80;;;;;;6249431;22;20385;-71
2022/07/04 01:52:20;;;;;;;1.50;1.00;;;25.80;57.90;;;;;;6276434;22;20367;-71
2022/07/04 01:54:46;;;;;;;1.40;1.20;;;25.70;57.90;;;;;;6225116;22;20852;-71
2022/07/04 01:57:14;;;;;;;2.07;1.10;;;25.70;57.90;;;;;;6200970;22;20474;-71
2022/07/04 02:02:28;;;;;;;2.50;1.20;;;25.70;57.90;;;;;;6278525;22;20872;-71
2022/07/04 02:04:56;;;;;;;2.03;1.37;;;25.60;57.90;;;;;;6251438;22;20368;-71
2022/07/04 02:07:22;;;;;;;2.00;1.40;;;25.60;57.90;;;;;;6278491;22;20427;-71
2022/07/04 02:09:52;;;;;;;3.53;1.30;;;25.60;57.90;;;;;;6278272;22;20882;-71
2022/07/04 02:15:04;;;;;;;1.57;1.20;;;25.60;58.00;;;;;;6276779;22;20855;-71
2022/07/04 02:17:30;;;;;;;1.90;1.20;;;25.50;58.00;;;;;;6278434;22;20457;-71
2022/07/04 02:20:04;;;;;;;2.70;1.17;;;25.50;58.00;;;;;;6278184;22;20407;-71
2022/07/04 02:22:32;;;;;;;1.70;1.27;;;25.50;58.00;;;;;;6276767;22;20397;-71
2022/07/04 02:25:01;;;;;;;2.87;1.23;;;25.50;58.10;;;;;;6225852;22;20400;-71
2022/07/04 02:27:29;;;;;;;1.50;1.00;;;25.40;58.00;;;;;;6251073;22;20401;-71
2022/07/04 02:30:02;;;;;;;1.50;1.00;;;25.40;58.10;;;;;;6251630;22;20404;-71
2022/07/04 02:32:31;;;;;;;1.43;1.13;;;25.40;58.10;;;;;;6225800;22;20384;-71
2022/07/04 02:34:57;;;;;;;1.47;1.13;;;25.40;58.20;;;;;;6225748;22;20447;-71
2022/07/04 02:37:23;;;;;;;1.50;1.40;;;25.40;58.20;;;;;;6251055;22;20930;-71
2022/07/04 02:39:49;;;;;;;1.53;1.20;;;25.30;58.20;;;;;;6276566;22;20466;-70
2022/07/04 02:42:17;;;;;;;2.13;1.27;;;25.30;58.20;;;;;;6226033;22;20401;-70
2022/07/04 02:44:46;;;;;;;2.27;1.13;;;25.30;58.20;;;;;;6251384;22;20447;-71
2022/07/04 02:47:12;;;;;;;2.17;1.20;;;25.30;58.30;;;;;;6250870;22;20431;-71
2022/07/04 02:49:41;;;;;;;1.80;1.27;;;25.20;58.30;;;;;;6251050;22;20408;-71
2022/07/04 02:52:10;;;;;;;3.40;1.30;;;25.20;58.30;;;;;;6251192;22;20207;-71
2022/07/04 02:54:38;;;;;;;1.57;1.23;;;25.20;58.30;;;;;;6251713;22;20703;-71
2022/07/04 02:57:05;;;;;;;2.90;1.20;;;25.20;58.30;;;;;;6251014;22;20397;-71
2022/07/04 02:59:33;;;;;;;1.63;1.10;;;25.20;58.30;;;;;;6250837;22;20397;-70
2022/07/04 03:01:59;;;;;;;1.60;1.23;;;25.10;58.30;;;;;;6277636;22;20361;-70
2022/07/04 03:04:28;;;;;;;2.10;1.10;;;25.10;58.30;;;;;;6277785;22;20881;-71
2022/07/04 03:06:54;;;;;;;1.53;1.17;;;25.10;58.40;;;;;;6250541;22;20494;-71
2022/07/04 03:09:30;;;;;;;1.23;1.00;;;25.10;58.40;;;;;;6277688;22;20408;-70
2022/07/04 03:11:56;;;;;;;0.80;0.80;;;25.10;58.50;;;;;;6225536;22;20381;-70
2022/07/04 03:14:24;;;;;;;1.43;1.30;;;25.00;58.50;;;;;;6277627;22;20380;-71
2022/07/04 03:16:54;;;;;;;2.70;1.27;;;25.00;58.50;;;;;;6277689;22;20167;-71
2022/07/04 03:19:20;;;;;;;2.40;1.17;;;25.00;58.50;;;;;;6250693;22;20780;-71
2022/07/04 03:21:46;;;;;;;1.90;1.37;;;25.00;58.50;;;;;;6250699;22;20366;-71
2022/07/04 03:24:15;;;;;;;1.40;1.27;;;24.90;58.50;;;;;;6277758;22;20146;-71
2022/07/04 03:26:46;;;;;;;2.13;1.10;;;24.90;58.60;;;;;;6277539;22;20411;-71
2022/07/04 03:29:12;;;;;;;4.33;1.20;;;24.90;58.60;;;;;;6250578;22;20492;-71
2022/07/04 03:31:38;;;;;;;2.50;1.00;;;24.90;58.60;;;;;;6250725;22;20393;-71
2022/07/04 03:34:11;;;;;;;2.60;1.10;;;24.90;58.60;;;;;;6251842;22;20395;-71
2022/07/04 03:36:37;;;;;;;1.67;1.10;;;24.90;58.60;;;;;;6277598;22;20854;-71
2022/07/04 03:39:03;;;;;;;1.57;1.17;;;24.90;58.70;;;;;;6250383;22;20401;-71
2022/07/04 03:41:31;;;;;;;1.27;0.97;;;24.80;58.60;;;;;;6225134;22;20394;-71
2022/07/04 03:44:00;;;;;;;1.83;1.30;;;24.80;58.70;;;;;;6275706;22;20389;-71
2022/07/04 03:46:28;;;;;;;1.23;1.13;;;24.80;58.70;;;;;;6250473;22;20190;-71
2022/07/04 03:48:55;;;;;;;5.40;1.53;;;24.70;58.60;;;;;;6225076;22;20412;-71
2022/07/04 03:51:26;;;;;;;2.03;1.20;;;24.70;58.70;;;;;;6277380;22;20432;-71
2022/07/04 03:53:52;;;;;;;1.87;1.10;;;24.70;58.70;;;;;;6225133;22;20373;-71
2022/07/04 03:56:18;;;;;;;2.27;1.47;;;24.70;58.70;;;;;;6250333;22;20394;-71
2022/07/04 03:58:48;;;;;;;2.40;1.20;;;24.70;58.80;;;;;;6251247;22;20474;-71
2022/07/04 04:01:20;;;;;;;1.60;1.50;;;24.60;58.70;;;;;;6250468;22;20710;-71
2022/07/04 04:06:38;;;;;;;1.70;1.20;;;24.60;58.80;;;;;;6277102;22;20732;-71
2022/07/04 04:09:16;;;;;;;2.07;1.27;;;24.60;58.80;;;;;;6250219;22;20472;-71
2022/07/04 04:11:45;;;;;;;1.93;1.30;;;24.50;58.80;;;;;;6277526;22;20392;-70
2022/07/04 04:14:13;;;;;;;3.93;1.40;;;24.50;58.90;;;;;;6225188;22;20365;-71
2022/07/04 04:16:42;;;;;;;2.83;1.73;;;24.50;58.90;;;;;;6275165;22;20408;-70
2022/07/04 04:19:11;;;;;;;1.80;1.37;;;24.50;58.90;;;;;;6250806;22;20409;-71
2022/07/04 04:21:38;;;;;;;2.30;1.30;;;24.50;59.00;;;;;;6224737;22;20397;-71
2022/07/04 04:24:04;;;;;;;3.73;1.63;;;24.50;59.00;;;;;;6250190;22;20372;-70
2022/07/04 04:26:32;;;;;;;3.50;1.40;;;24.40;58.90;;;;;;6276991;22;20413;-71
2022/07/04 04:28:58;;;;;;;1.50;1.40;;;24.40;59.00;;;;;;6277002;22;20397;-70
2022/07/04 04:31:24;;;;;;;3.27;1.50;;;24.40;59.00;;;;;;6250143;22;20358;-71
2022/07/04 04:33:52;;;;;;;2.13;1.40;;;24.40;59.10;;;;;;6249924;22;20711;-71
2022/07/04 04:36:18;;;;;;;1.77;1.07;;;24.40;59.30;;;;;;6250021;22;20415;-72
2022/07/04 04:38:44;;;;;;;1.93;1.33;;;24.40;59.10;;;;;;6249581;22;20405;-70
2022/07/04 04:41:10;;;;;;;2.23;1.47;;;24.30;59.10;;;;;;6248933;22;20435;-71
2022/07/04 04:43:39;;;;;;;1.97;1.37;;;24.30;59.10;;;;;;6249040;22;20837;-71
2022/07/04 04:46:05;;;;;;;3.03;1.30;;;24.30;59.70;;;;;;6248766;22;20405;-71
2022/07/04 04:48:31;;;;;;;1.67;1.20;;;24.30;59.80;;;;;;6248557;22;20709;-70
2022/07/04 04:51:02;;;;;;;1.70;1.60;;;24.30;59.20;;;;;;6248519;22;20404;-71
2022/07/04 04:53:30;;;;;;;1.97;1.30;;;24.30;59.30;;;;;;6275859;22;20358;-70
2022/07/04 04:56:01;;;;;;;3.27;1.80;;;24.20;59.30;;;;;;6248463;22;20389;-70
2022/07/04 04:58:27;;;;;;;2.10;1.00;;;24.20;59.30;;;;;;6248317;22;20405;-71
2022/07/04 05:00:53;;;;;;;1.50;1.40;;;24.20;59.40;;;;;;6275496;22;20371;-71
2022/07/04 05:03:19;;;;;;;2.33;1.27;;;24.20;59.40;;;;;;6248403;22;20245;-71
2022/07/04 05:05:45;;;;;;;3.93;1.43;;;24.20;59.50;;;;;;6248384;22;20730;-71
2022/07/04 05:08:14;;;;;;;1.53;1.30;;;24.20;59.50;;;;;;6248942;22;20824;-71
2022/07/04 05:10:42;;;;;;;1.87;1.60;;;24.20;59.60;;;;;;6248639;22;20389;-71
2022/07/04 05:13:09;;;;;;;3.60;1.67;;;24.20;59.70;;;;;;6248686;22;20436;-72
2022/07/04 05:15:34;;;;;;;4.00;1.53;;;24.10;59.70;;;;;;6275476;22;20377;-70
2022/07/04 05:18:00;;;;;;;3.87;1.70;;;24.10;59.70;;;;;;6273552;22;20755;-70
2022/07/04 05:20:29;;;;;;;3.40;1.70;;;24.10;59.80;;;;;;6223229;22;20382;-72
2022/07/04 05:22:57;;;;;;;4.33;1.70;;;24.10;59.90;;;;;;6248738;22;20370;-70
2022/07/04 05:25:23;;;;;;;2.07;1.60;;;24.10;60.00;;;;;;6222988;22;20501;-71
2022/07/04 05:27:49;;;;;;;2.23;1.50;;;24.10;60.10;;;;;;6222430;22;20364;-71
2022/07/04 05:30:17;;;;;;;2.73;1.40;;;24.10;60.20;;;;;;6275273;22;20362;-70
2022/07/04 05:32:44;;;;;;;4.40;1.50;;;24.10;60.40;;;;;;6248394;22;20373;-70
2022/07/04 05:35:10;;;;;;;1.97;1.50;;;24.10;60.50;;;;;;6273958;22;20393;-70
2022/07/04 05:37:39;;;;;;;1.67;1.33;;;24.00;60.50;;;;;;6248496;22;20409;-71
2022/07/04 05:40:05;;;;;;;3.63;1.70;;;24.00;60.70;;;;;;6274815;22;20478;-71
2022/07/04 05:42:33;;;;;;;2.20;2.00;;;24.00;60.70;;;;;;6223644;22;20377;-71
2022/07/04 05:45:00;;;;;;;6.97;1.83;;;24.00;61.00;;;;;;6276208;22;20366;-71
2022/07/04 05:47:31;;;;;;;2.67;1.60;;;24.00;61.50;;;;;;6276183;22;20385;-70
2022/07/04 05:50:00;;;;;;;3.03;1.63;;;23.90;61.50;;;;;;6249538;22;20881;-70
2022/07/04 05:52:26;;;;;;;3.50;2.03;;;23.90;61.60;;;;;;6249058;22;20354;-70
2022/07/04 05:54:57;;;;;;;3.50;1.70;;;23.90;61.90;;;;;;6249180;22;20405;-70
2022/07/04 05:57:23;;;;;;;4.40;1.87;;;23.90;61.90;;;;;;6249067;22;20377;-70
2022/07/04 05:59:52;;;;;;;3.10;1.80;;;23.90;61.90;;;;;;6223549;22;20463;-70
2022/07/04 06:02:21;;;;;;;3.47;1.70;;;23.90;62.00;;;;;;6249946;22;20358;-70
2022/07/04 06:04:47;;;;;;;2.60;2.00;;;23.90;62.00;;;;;;6248932;22;20385;-70
2022/07/04 06:07:17;;;;;;;4.10;1.70;;;23.80;62.00;;;;;;6248523;22;20636;-70
2022/07/04 06:09:46;;;;;;;4.17;2.00;;;23.80;62.00;;;;;;6249797;22;20401;-70
2022/07/04 06:12:12;;;;;;;2.93;1.60;;;23.80;62.00;;;;;;6274573;22;20462;-70
2022/07/04 06:14:41;;;;;;;3.63;1.63;;;23.80;62.10;;;;;;6274595;22;20780;-70
2022/07/04 06:17:07;;;;;;;4.10;1.40;;;23.80;62.10;;;;;;6274548;22;20949;-70
2022/07/04 06:19:35;;;;;;;3.70;1.90;;;23.80;62.20;;;;;;6276047;22;20864;-70
2022/07/04 06:22:03;;;;;;;2.23;1.37;;;23.80;62.30;;;;;;6248788;22;20389;-70
2022/07/04 06:24:29;;;;;;;2.00;1.50;;;23.80;62.40;;;;;;6248901;22;20823;-70
2022/07/04 06:26:55;;;;;;;2.33;1.40;;;23.80;62.40;;;;;;6275840;22;20437;-70
2022/07/04 06:29:24;;;;;;;5.43;2.30;;;23.80;62.40;;;;;;6248589;22;20520;-70
2022/07/04 06:31:50;;;;;;;3.97;2.13;;;23.80;62.50;;;;;;6248867;22;20145;-70
2022/07/04 06:37:02;;;;;;;1.90;1.40;;;23.80;62.70;;;;;;6275695;22;20209;-70
2022/07/04 06:39:31;;;;;;;2.10;1.90;;;23.80;62.80;;;;;;6249141;22;20738;-70
2022/07/04 06:42:00;;;;;;;3.50;1.70;;;23.70;62.70;;;;;;6250694;22;20400;-69
2022/07/04 06:44:28;;;;;;;3.33;1.77;;;23.70;62.80;;;;;;6200790;22;20421;-68
2022/07/04 06:46:57;;;;;;;1.80;1.60;;;23.70;62.80;;;;;;6226271;22;20421;-68
2022/07/04 06:49:23;;;;;;;3.70;1.80;;;23.70;62.90;;;;;;6276346;22;20431;-68
2022/07/04 06:51:49;;;;;;;4.50;2.10;;;23.70;63.00;;;;;;6277925;22;20511;-68
2022/07/04 06:54:15;;;;;;;3.10;1.60;;;23.70;63.10;;;;;;6276454;22;20389;-68
2022/07/04 06:56:44;;;;;;;6.23;1.90;;;23.70;63.10;;;;;;6251120;22;20358;-68
2022/07/04 06:59:12;;;;;;;4.63;1.70;;;23.70;62.90;;;;;;6277818;22;20397;-67
2022/07/04 07:01:40;;;;;;;1.63;1.30;;;23.70;62.90;;;;;;6277993;22;20428;-68
2022/07/04 07:04:06;;;;;;;4.13;1.63;;;23.70;62.90;;;;;;6277929;22;20218;-68
2022/07/04 07:06:37;;;;;;;3.10;1.60;;;23.70;63.20;;;;;;6250680;22;20458;-68
2022/07/04 07:09:08;;;;;;;2.80;1.77;;;23.70;62.70;;;;;;6250714;22;20397;-68
2022/07/04 07:11:36;;;;;;;1.83;1.57;;;23.70;62.60;;;;;;6277949;22;20698;-68
2022/07/04 07:14:04;;;;;;;3.60;1.90;;;23.70;62.60;;;;;;6277783;22;20365;-68
2022/07/04 07:16:35;;;;;;;2.20;1.27;;;23.70;62.50;;;;;;6277694;22;20385;-68
2022/07/04 07:19:03;;;;;;;3.93;2.20;;;23.70;62.40;;;;;;6276157;22;20433;-68
2022/07/04 07:21:31;;;;;;;4.00;1.50;;;23.70;62.30;;;;;;6276305;22;20915;-68
2022/07/04 07:24:03;;;;;;;2.40;1.30;;;23.70;62.10;;;;;;6277993;22;20366;-68
2022/07/04 07:26:34;;;;;;;2.20;1.40;;;23.70;62.00;;;;;;6275849;22;20440;-68
2022/07/04 07:29:00;;;;;;;1.70;1.50;;;23.70;61.90;;;;;;6277594;22;20542;-68
2022/07/04 07:31:26;;;;;;;1.30;1.17;;;23.70;61.90;;;;;;6225251;22;20464;-68
2022/07/04 07:33:55;;;;;;;1.60;1.20;;;23.70;61.70;;;;;;6276082;22;20374;-68
2022/07/04 07:36:25;;;;;;;1.40;1.23;;;23.70;61.70;;;;;;6250796;22;20400;-68
2022/07/04 07:38:56;;;;;;;3.87;2.27;;;23.80;61.70;;;;;;6277294;22;20768;-68
2022/07/04 07:41:27;;;;;;;2.27;1.40;;;23.70;61.50;;;;;;6250499;22;20849;-68
2022/07/04 07:43:53;;;;;;;1.87;1.10;;;23.80;61.50;;;;;;6250651;22;20433;-68
2022/07/04 07:46:19;;;;;;;1.40;1.30;;;23.80;61.50;;;;;;6250586;22;20457;-68
2022/07/04 07:48:45;;;;;;;2.20;1.40;;;23.80;61.40;;;;;;6250519;22;20399;-68
2022/07/04 07:51:11;;;;;;;1.50;1.10;;;23.80;61.30;;;;;;6277290;22;20366;-68
2022/07/04 07:53:39;;;;;;;4.20;1.57;;;23.80;61.30;;;;;;6249960;22;20443;-68
2022/07/04 07:56:07;;;;;;;3.27;1.30;;;23.80;61.20;;;;;;6278037;22;20449;-68
2022/07/04 07:58:38;;;;;;;1.57;1.20;;;23.80;61.10;;;;;;6277411;22;20480;-68
2022/07/04 08:01:04;;;;;;;3.40;1.17;;;23.80;61.10;;;;;;6277429;22;20366;-68
2022/07/04 08:06:19;;;;;;;1.30;1.20;;;23.80;61.00;;;;;;6250152;22;20437;-68
2022/07/04 08:08:45;;;;;;;1.60;1.10;;;23.90;61.10;;;;;;6277468;22;20932;-68
2022/07/04 08:11:20;;;;;;;2.97;1.63;;;23.90;61.10;;;;;;6277551;22;20884;-68
2022/07/04 08:13:46;;;;;;;2.23;1.00;;;23.90;61.00;;;;;;6277372;22;20750;-68
2022/07/04 08:16:17;;;;;;;1.03;0.93;;;23.90;61.00;;;;;;6249966;22;20380;-68
2022/07/04 08:18:45;;;;;;;2.70;1.43;;;23.90;60.90;;;;;;6250528;22;20407;-68
2022/07/04 08:21:16;;;;;;;1.30;1.20;;;24.00;61.00;;;;;;6277219;22;20370;-68
2022/07/04 08:23:42;;;;;;;1.80;1.40;;;24.00;60.90;;;;;;6277199;22;20448;-68
2022/07/04 08:26:11;;;;;;;1.10;1.00;;;24.00;60.90;;;;;;6249979;22;20429;-68
2022/07/04 08:28:37;;;;;;;2.70;1.00;;;23.90;60.90;;;;;;6277063;22;20458;-68
2022/07/04 08:31:04;;;;;;;3.47;1.30;;;24.00;60.80;;;;;;6249838;22;20830;-68
2022/07/04 08:33:32;;;;;;;1.20;1.10;;;24.00;60.80;;;;;;6224651;22;20744;-68
2022/07/04 08:35:58;;;;;;;3.03;1.30;;;24.10;60.90;;;;;;6249965;22;20469;-68
2022/07/04 08:38:24;;;;;;;1.50;1.20;;;24.00;60.70;;;;;;6276981;22;20865;-68
2022/07/04 08:40:57;;;;;;;1.20;1.10;;;24.10;60.90;;;;;;6199548;22;20393;-68
2022/07/04 08:43:26;;;;;;;2.50;1.00;;;24.10;60.80;;;;;;6250369;22;20784;-68
2022/07/04 08:45:56;;;;;;;2.10;1.20;;;24.10;60.70;;;;;;6249734;22;20421;-68
2022/07/04 08:48:30;;;;;;;1.30;0.90;;;24.10;60.70;;;;;;6224962;22;20393;-68
2022/07/04 08:51:02;;;;;;;1.33;1.13;;;24.20;60.80;;;;;;6224489;22;20768;-68
2022/07/04 08:53:32;;;;;;;2.13;1.07;;;24.20;60.70;;;;;;6250679;22;20404;-68
2022/07/04 08:58:47;;;;;;;4.20;1.27;;;24.20;60.70;;;;;;6249744;22;20482;-68
2022/07/04 09:01:16;;;;;;;1.77;1.20;;;24.20;60.60;;;;;;6249881;22;20378;-68
2022/07/04 09:03:44;;;;;;;1.83;1.37;;;24.30;60.60;;;;;;6199308;22;20398;-68
2022/07/04 09:06:15;;;;;;;4.03;1.30;;;24.30;60.50;;;;;;6249644;22;20943;-68
2022/07/04 09:08:41;;;;;;;1.40;1.30;;;24.30;60.40;;;;;;6249657;22;20476;-68
2022/07/04 09:11:12;;;;;;;3.50;1.23;;;24.30;60.40;;;;;;6249651;22;20385;-68
2022/07/04 09:13:38;;;;;;;1.57;1.23;;;24.40;60.30;;;;;;6249782;22;20383;-68
2022/07/04 09:16:07;;;;;;;3.33;1.20;;;24.40;60.20;;;;;;6249696;22;20382;-68
2022/07/04 09:18:35;;;;;;;1.63;1.30;;;24.40;60.10;;;;;;6274938;22;20439;-68
2022/07/04 09:21:09;;;;;;;1.63;1.30;;;24.50;60.00;;;;;;6276622;22;20458;-68
2022/07/04 09:23:42;;;;;;;3.33;1.10;;;24.50;60.00;;;;;;6249895;22;20456;-68
2022/07/04 09:26:17;;;;;;;1.50;1.40;;;24.50;59.90;;;;;;6224818;22;20499;-68
2022/07/04 09:28:57;;;;;;;1.10;0.90;;;24.50;59.90;;;;;;6249615;22;20392;-68
2022/07/04 09:31:32;;;;;;;1.20;1.07;;;24.60;60.00;;;;;;6249509;22;20388;-68
2022/07/04 09:34:04;;;;;;;1.80;1.10;;;24.60;60.00;;;;;;6224277;22;20360;-68
2022/07/04 09:36:43;;;;;;;1.50;1.03;;;24.60;60.00;;;;;;6224219;22;20378;-68
2022/07/04 09:39:21;;;;;;;2.33;1.27;;;24.70;60.00;;;;;;6249643;22;20411;-68
2022/07/04 09:41:59;;;;;;;1.30;1.20;;;24.70;59.90;;;;;;6249549;22;20829;-68
2022/07/04 09:44:29;;;;;;;1.40;1.30;;;24.70;59.80;;;;;;6274987;22;20856;-68
2022/07/04 09:46:57;;;;;;;3.10;1.27;;;24.70;59.70;;;;;;6249983;22;20411;-68
2022/07/04 09:49:23;;;;;;;2.33;1.30;;;24.80;59.70;;;;;;6224050;22;20435;-68
2022/07/04 09:51:54;;;;;;;3.20;1.30;;;24.80;59.50;;;;;;6275084;22;20365;-68
2022/07/04 09:54:28;;;;;;;2.57;1.27;;;24.80;59.50;;;;;;6276509;22;20886;-68
2022/07/04 09:57:01;;;;;;;1.80;1.30;;;24.90;59.50;;;;;;6224102;22;20483;-68
2022/07/04 09:59:32;;;;;;;1.20;1.10;;;24.90;60.10;;;;;;6249408;22;20389;-68
2022/07/04 10:02:12;;;;;;;2.50;1.33;;;24.90;59.50;;;;;;6276421;22;20377;-68
2022/07/04 10:04:51;;;;;;;1.40;1.20;;;25.00;59.60;;;;;;6249913;22;20404;-68
2022/07/04 10:07:36;;;;;;;1.47;1.23;;;25.00;59.40;;;;;;6249277;22;20432;-68
2022/07/04 10:10:26;;;;;;;1.77;1.20;;;25.00;59.50;;;;;;6194743;23;20562;-68
2022/07/04 10:13:01;;;;;;;3.23;1.73;;;25.10;59.40;;;;;;6274304;22;20812;-68
2022/07/04 10:15:27;;;;;;;1.90;1.30;;;25.10;59.50;;;;;;6249952;22;20454;-68
2022/07/04 10:17:56;;;;;;;2.53;1.30;;;25.10;59.40;;;;;;6251109;22;20396;-68
2022/07/04 10:20:25;;;;;;;2.10;1.47;;;25.20;59.40;;;;;;6278395;22;20806;-68
2022/07/04 10:22:51;;;;;;;1.00;0.90;;;25.20;59.30;;;;;;6251441;22;20351;-68
2022/07/04 10:25:21;;;;;;;1.47;1.27;;;25.30;59.40;;;;;;6226251;22;20869;-68
2022/07/04 10:27:51;;;;;;;2.00;1.20;;;25.30;59.30;;;;;;6278175;22;20358;-68
2022/07/04 10:30:38;;;;;;;1.10;1.00;;;25.30;59.20;;;;;;6276756;22;20373;-68
2022/07/04 10:33:07;;;;;;;1.57;1.10;;;25.40;59.10;;;;;;6200912;22;20906;-68
2022/07/04 10:35:49;;;;;;;2.30;1.13;;;25.40;59.10;;;;;;6251099;22;20403;-68
2022/07/04 10:38:20;;;;;;;2.30;1.17;;;25.40;59.00;;;;;;6225557;22;20413;-68
2022/07/04 10:40:56;;;;;;;2.57;1.40;;;25.50;58.90;;;;;;6278194;22;20384;-68
2022/07/04 10:43:31;;;;;;;1.63;0.93;;;25.50;58.90;;;;;;6251024;22;20409;-68
2022/07/04 10:46:19;;;;;;;2.40;1.33;;;25.50;58.70;;;;;;6278142;22;20417;-68
2022/07/04 10:48:52;;;;;;;1.53;1.30;;;25.60;58.80;;;;;;6251793;22;20738;-68
2022/07/04 10:51:43;;;;;;;3.47;1.10;;;25.60;58.50;;;;;;6278387;22;20367;-68
2022/07/04 10:54:16;;;;;;;1.37;0.97;;;25.60;58.50;;;;;;6278066;22;20898;-68
2022/07/04 10:56:43;;;;;;;1.57;1.00;;;25.70;58.40;;;;;;6225710;22;20856;-68
2022/07/04 10:59:21;;;;;;;1.30;1.20;;;25.70;58.50;;;;;;6251162;22;20425;-68
2022/07/04 11:02:13;;;;;;;1.97;1.30;;;25.70;58.50;;;;;;6276491;22;20415;-69
2022/07/04 11:05:07;;;;;;;1.80;1.00;;;25.80;58.30;;;;;;6276482;22;20393;-68
2022/07/04 11:07:37;;;;;;;2.33;1.10;;;25.80;58.20;;;;;;6250756;22;20546;-68
2022/07/04 11:10:21;;;;;;;1.77;1.23;;;25.90;58.30;;;;;;6276369;22;20802;-68
2022/07/04 11:12:57;;;;;;;1.50;1.30;;;25.90;58.80;;;;;;6277905;22;20848;-68
2022/07/04 11:15:30;;;;;;;1.33;1.17;;;25.90;58.30;;;;;;6251400;22;20369;-68
2022/07/04 11:18:13;;;;;;;1.87;1.40;;;26.00;58.30;;;;;;6225376;22;20881;-68
2022/07/04 11:20:47;;;;;;;3.90;1.47;;;26.00;58.30;;;;;;6250693;22;20377;-68
2022/07/04 11:23:19;;;;;;;1.47;1.23;;;26.10;58.20;;;;;;6277873;22;20698;-68
2022/07/04 11:25:50;;;;;;;1.37;1.20;;;26.10;58.10;;;;;;6250532;22;20416;-68
2022/07/04 11:28:36;;;;;;;1.40;1.30;;;26.10;58.10;;;;;;6275968;22;20439;-68
2022/07/04 11:31:06;;;;;;;1.67;1.37;;;26.20;58.20;;;;;;6250573;22;20366;-68
2022/07/04 11:33:34;;;;;;;1.63;1.33;;;26.20;58.10;;;;;;6277856;22;20821;-68
2022/07/04 11:36:11;;;;;;;1.43;1.00;;;26.20;58.70;;;;;;6251152;22;20369;-68
2022/07/04 11:38:53;;;;;;;1.30;1.10;;;26.30;58.10;;;;;;6275866;22;20412;-68
2022/07/04 11:47:14;;;;;;;1.83;1.73;;;26.40;58.00;;;;;;6277823;22;20742;-68
2022/07/04 11:49:54;;;;;;;1.57;1.20;;;26.40;57.90;;;;;;6251324;22;20389;-68
2022/07/04 11:52:26;;;;;;;1.50;1.37;;;26.40;57.90;;;;;;6277721;22;20852;-68
2022/07/04 11:54:53;;;;;;;1.73;1.43;;;26.40;57.90;;;;;;6250511;22;20362;-68
2022/07/04 11:57:26;;;;;;;1.83;1.50;;;26.50;58.00;;;;;;6250397;22;20781;-68
2022/07/04 11:59:58;;;;;;;1.60;1.17;;;26.50;57.90;;;;;;6275676;22;20416;-68
2022/07/04 12:02:28;;;;;;;1.73;1.20;;;26.50;57.90;;;;;;6250861;22;20370;-68
2022/07/04 12:04:55;;;;;;;1.50;1.40;;;26.50;57.90;;;;;;6251180;22;20361;-68
2022/07/04 12:07:27;;;;;;;1.97;1.53;;;26.60;57.90;;;;;;6250813;22;20424;-68
2022/07/04 12:09:56;;;;;;;1.43;1.33;;;26.60;57.90;;;;;;6275610;22;20412;-68
2022/07/04 12:12:23;;;;;;;1.70;1.60;;;26.60;57.80;;;;;;6275818;22;20762;-68
2022/07/04 12:15:09;;;;;;;1.63;1.10;;;26.70;57.90;;;;;;6277456;22;20369;-68
2022/07/04 12:17:40;;;;;;;1.20;1.07;;;26.70;57.80;;;;;;6277551;22;20425;-68
2022/07/04 12:20:17;;;;;;;1.73;1.30;;;26.70;57.70;;;;;;6277075;22;20425;-68
2022/07/04 12:22:49;;;;;;;2.57;1.60;;;26.70;57.60;;;;;;6250097;22;20387;-68
2022/07/04 12:25:29;;;;;;;1.87;1.40;;;26.70;57.50;;;;;;6275526;22;20442;-68
2022/07/04 12:28:02;;;;;;;1.67;1.30;;;26.80;57.50;;;;;;6224767;22;20853;-68
2022/07/04 12:30:33;;;;;;;2.70;1.33;;;26.80;57.50;;;;;;6277110;22;20444;-68
2022/07/04 12:33:05;;;;;;;1.60;1.50;;;26.80;57.50;;;;;;6250300;22;20408;-68
2022/07/04 12:35:35;;;;;;;3.37;1.57;;;26.80;57.40;;;;;;6277067;22;20400;-68
2022/07/04 12:38:13;;;;;;;2.63;1.43;;;26.90;57.40;;;;;;6249563;22;20400;-68
2022/07/04 12:41:05;;;;;;;3.20;1.67;;;26.90;57.30;;;;;;6277069;22;20400;-68
2022/07/04 12:43:42;;;;;;;1.53;1.43;;;26.90;57.10;;;;;;6277132;22;20448;-70
2022/07/04 12:46:33;;;;;;;3.27;1.20;;;26.90;57.00;;;;;;6250352;22;20432;-68
2022/07/04 12:49:01;;;;;;;2.10;1.30;;;27.00;57.20;;;;;;6275393;22;20432;-68
2022/07/04 12:51:35;;;;;;;1.17;1.07;;;27.00;57.00;;;;;;6268000;22;20362;-68
2022/07/04 12:54:08;;;;;;;1.73;1.40;;;27.00;56.70;;;;;;6245300;23;20363;-68
2022/07/04 12:56:36;;;;;;;1.40;1.30;;;27.00;56.50;;;;;;6270259;22;20448;-68
2022/07/04 12:59:05;;;;;;;1.63;1.33;;;27.10;57.10;;;;;;6249776;22;20433;-68
2022/07/04 13:01:35;;;;;;;1.80;1.57;;;27.10;56.50;;;;;;6224912;22;20413;-68
2022/07/04 13:04:01;;;;;;;2.10;1.00;;;27.10;56.50;;;;;;6276731;22;20443;-68
2022/07/04 13:06:27;;;;;;;2.90;1.43;;;27.20;56.60;;;;;;6277017;22;20413;-68
2022/07/04 13:08:59;;;;;;;2.93;1.50;;;27.20;56.60;;;;;;6276829;22;20421;-68
2022/07/04 13:14:14;;;;;;;1.30;1.20;;;27.20;56.60;;;;;;6276766;22;20364;-68
2022/07/04 13:16:45;;;;;;;2.00;1.10;;;27.30;56.60;;;;;;6275383;22;20386;-68
2022/07/04 13:19:13;;;;;;;1.83;1.40;;;27.30;56.50;;;;;;6276697;22;20960;-68
2022/07/04 13:21:39;;;;;;;1.47;1.30;;;27.30;56.40;;;;;;6224707;22;20365;-68
2022/07/04 13:24:06;;;;;;;2.00;1.20;;;27.40;56.30;;;;;;6276881;22;20817;-68
2022/07/04 13:26:32;;;;;;;1.37;1.27;;;27.40;56.30;;;;;;6275019;22;20425;-68